Time;durP1;ratioP1;P1;durP2;ratioP2;P2;SDS_P1;SDS_P2;PMS_P1;PMS_P2;Temp;Humidity;BMP_temperature;BMP_pressure;BME280_temperature;BME280_humidity;BME280_pressure;Samples;Min_cycle;Max_cycle;Signal;HPM_P1;HPM_P2
2022/10/20 17:04:25;;;;;;;14.73;9.77;;;;;;;11.93;60.48;63227.91;5166717;23;205530;-78
2022/10/20 17:06:52;;;;;;;18.50;10.68;;;;;;;11.93;60.56;63231.00;5060853;28;20201;-78
2022/10/20 17:09:19;;;;;;;9.85;8.07;;;;;;;11.89;60.35;63224.28;5068875;28;20449;-79
2022/10/20 17:11:46;;;;;;;13.75;8.82;;;;;;;11.85;60.67;63222.72;5060689;28;20505;-78
2022/10/20 17:14:13;;;;;;;12.50;9.27;;;;;;;11.83;60.77;63215.53;5061203;28;20218;-80
2022/10/20 17:16:41;;;;;;;15.10;10.32;;;;;;;11.88;60.88;63222.72;5064678;28;20198;-80
2022/10/20 17:19:09;;;;;;;12.57;9.60;;;;;;;11.90;61.15;63230.44;5061272;28;20277;-80
2022/10/20 17:21:38;;;;;;;5.80;5.30;;;;;;;11.87;61.92;63222.22;5066290;28;20252;-79
2022/10/20 17:24:08;;;;;;;4.90;4.60;;;;;;;11.85;62.88;63222.72;5064652;28;20598;-78
2022/10/20 17:26:35;;;;;;;7.78;5.68;;;;;;;11.87;63.93;63221.72;5062550;28;20252;-80
2022/10/20 17:29:02;;;;;;;5.68;4.93;;;;;;;11.83;63.77;63217.56;5059219;28;20213;-79
2022/10/20 17:31:29;;;;;;;4.90;4.50;;;;;;;11.80;65.27;63219.56;5059986;28;20194;-79
2022/10/20 17:33:57;;;;;;;6.30;4.45;;;;;;;11.73;66.57;63210.28;5062187;28;20267;-78
2022/10/20 17:36:25;;;;;;;4.97;4.57;;;;;;;11.74;67.05;63210.78;5056876;28;20232;-80
2022/10/20 17:38:58;;;;;;;7.03;4.40;;;;;;;11.76;67.54;63210.81;5059349;28;20446;-80
2022/10/20 17:41:26;;;;;;;7.55;5.03;;;;;;;11.78;68.27;63212.91;5064214;28;20225;-80
2022/10/20 17:43:53;;;;;;;5.32;4.82;;;;;;;11.69;68.89;63205.59;5061050;28;20226;-80
2022/10/20 17:46:20;;;;;;;8.70;4.88;;;;;;;11.71;69.06;63207.69;5061244;28;20202;-78
2022/10/20 17:48:48;;;;;;;4.50;4.15;;;;;;;11.72;69.63;63209.22;5056402;28;20218;-79
2022/10/20 17:51:16;;;;;;;5.78;5.07;;;;;;;11.69;70.04;63206.13;5058635;28;20221;-81
2022/10/20 17:53:46;;;;;;;10.57;4.60;;;;;;;11.59;70.89;63190.66;5060810;28;20231;-79
2022/10/20 17:56:17;;;;;;;5.97;4.80;;;;;;;11.56;71.56;63190.09;5061084;28;20194;-79
2022/10/20 17:58:46;;;;;;;5.25;4.85;;;;;;;11.58;71.99;63194.69;5056415;28;20213;-77
2022/10/20 18:01:15;;;;;;;5.13;4.80;;;;;;;11.60;72.53;63191.69;5063061;28;20244;-80
2022/10/20 18:03:43;;;;;;;6.55;5.28;;;;;;;11.50;73.25;63186.41;5055783;28;20524;-79
2022/10/20 18:06:12;;;;;;;4.65;4.25;;;;;;;11.45;74.03;63184.31;5065676;28;20190;-79
2022/10/20 18:08:39;;;;;;;9.98;5.95;;;;;;;11.44;74.56;63175.13;5061115;28;20221;-78
2022/10/20 18:11:10;;;;;;;9.27;5.90;;;;;;;11.40;75.14;63170.97;5059633;28;20212;-81
2022/10/20 18:13:39;;;;;;;5.05;4.72;;;;;;;11.38;75.54;63171.44;5060071;28;20264;-80
2022/10/20 18:16:07;;;;;;;7.97;4.85;;;;;;;11.40;75.57;63173.50;5058788;28;20183;-80
2022/10/20 18:18:35;;;;;;;6.57;5.07;;;;;;;11.34;76.05;63169.84;5057776;28;20267;-80
2022/10/20 18:21:02;;;;;;;5.55;5.03;;;;;;;11.33;76.10;63168.81;5056273;28;20241;-80
2022/10/20 18:23:30;;;;;;;8.05;5.10;;;;;;;11.41;75.32;63177.63;5056184;28;20229;-79
2022/10/20 18:25:57;;;;;;;6.20;5.18;;;;;;;11.35;75.50;63171.41;5058656;28;20217;-79
2022/10/20 18:28:24;;;;;;;5.95;5.35;;;;;;;11.28;76.18;63159.06;5057307;28;20218;-78
2022/10/20 18:30:52;;;;;;;6.68;5.50;;;;;;;11.28;76.31;63164.16;5057938;28;20224;-80
2022/10/20 18:33:19;;;;;;;7.60;5.00;;;;;;;11.25;76.36;63158.50;5053990;28;20310;-77
2022/10/20 18:35:46;;;;;;;5.57;5.07;;;;;;;11.25;76.56;63157.97;5053930;28;20182;-80
2022/10/20 18:38:13;;;;;;;8.77;5.70;;;;;;;11.22;76.36;63152.84;5063717;28;20222;-79
2022/10/20 18:40:39;;;;;;;10.60;7.40;;;;;;;11.21;76.32;63156.91;5060915;28;20198;-78
2022/10/20 18:43:06;;;;;;;8.05;7.25;;;;;;;11.14;76.14;63146.59;5049186;28;20218;-78
2022/10/20 18:45:33;;;;;;;8.63;6.22;;;;;;;11.01;76.57;63136.19;5047718;28;20560;-76
2022/10/20 18:48:02;;;;;;;8.43;5.75;;;;;;;11.01;76.63;63136.19;5055469;28;20205;-77
2022/10/20 18:50:31;;;;;;;7.18;5.65;;;;;;;10.94;77.14;63130.97;5068083;28;20247;-78
2022/10/20 18:52:58;;;;;;;5.63;5.13;;;;;;;10.91;77.59;63120.75;5066007;28;20204;-77
2022/10/20 18:55:24;;;;;;;5.35;4.90;;;;;;;10.88;78.07;63120.19;5069561;28;20201;-77
2022/10/20 18:57:51;;;;;;;5.82;5.20;;;;;;;10.82;78.49;63113.97;5046231;28;20256;-77
2022/10/20 19:00:18;;;;;;;5.60;5.10;;;;;;;10.74;78.86;63102.63;5057198;28;20209;-78
2022/10/20 19:02:49;;;;;;;5.50;4.72;;;;;;;10.73;79.52;63106.69;5067209;28;20272;-77
2022/10/20 19:05:17;;;;;;;5.88;5.28;;;;;;;10.65;79.83;63095.88;5063908;28;20212;-77
2022/10/20 19:07:44;;;;;;;6.50;4.80;;;;;;;10.63;80.09;63098.88;5066251;28;20234;-78
2022/10/20 19:10:11;;;;;;;7.75;5.45;;;;;;;10.56;80.78;63084.00;5063522;28;20267;-77
2022/10/20 19:12:38;;;;;;;6.15;5.47;;;;;;;10.47;81.13;63077.75;5065028;28;20505;-78
2022/10/20 19:15:06;;;;;;;5.68;5.13;;;;;;;10.44;82.29;63072.59;5069602;28;20217;-79
2022/10/20 19:17:32;;;;;;;6.55;5.63;;;;;;;10.42;81.93;63075.63;5069959;28;20209;-77
2022/10/20 19:19:59;;;;;;;6.00;5.20;;;;;;;10.34;82.28;63066.81;5068515;28;20217;-78
2022/10/20 19:22:27;;;;;;;5.68;5.18;;;;;;;10.30;82.51;63060.66;5068352;28;20289;-77
2022/10/20 19:24:54;;;;;;;9.93;5.72;;;;;;;10.18;83.21;63055.88;5069535;28;20218;-78
2022/10/20 19:27:21;;;;;;;8.15;6.63;;;;;;;10.20;83.20;63050.31;5066375;28;20209;-79
2022/10/20 19:29:48;;;;;;;7.97;7.10;;;;;;;10.19;83.39;63054.38;5069092;28;20217;-76
2022/10/20 19:32:14;;;;;;;9.50;6.70;;;;;;;10.15;83.88;63042.06;5048027;28;20235;-77
2022/10/20 19:34:42;;;;;;;8.23;6.05;;;;;;;10.15;84.16;63047.69;5047766;28;20233;-78
2022/10/20 19:37:09;;;;;;;7.72;6.22;;;;;;;10.15;84.21;63047.16;5066697;28;20463;-76
2022/10/20 19:39:41;;;;;;;7.75;6.13;;;;;;;10.07;84.79;63036.34;5063641;28;20217;-78
2022/10/20 19:42:10;;;;;;;6.35;5.80;;;;;;;9.97;85.24;63028.53;5068514;28;20235;-78
2022/10/20 19:44:38;;;;;;;7.85;6.28;;;;;;;9.95;85.57;63023.91;5070304;28;20221;-79
2022/10/20 19:47:06;;;;;;;5.60;5.15;;;;;;;9.92;86.02;63023.38;5048132;28;20427;-77
2022/10/20 19:49:33;;;;;;;5.50;4.93;;;;;;;9.92;85.99;63018.78;5054655;28;20221;-78
2022/10/20 19:52:01;;;;;;;5.53;5.00;;;;;;;9.79;86.34;63004.81;5059802;28;20197;-76
2022/10/20 19:54:28;;;;;;;5.30;4.80;;;;;;;9.83;86.43;63017.13;5064253;28;20225;-77
2022/10/20 19:56:56;;;;;;;9.15;5.97;;;;;;;9.79;86.60;63010.44;5071307;28;20193;-78
2022/10/20 19:59:23;;;;;;;6.45;4.95;;;;;;;9.85;86.59;63016.13;5065299;28;20217;-78
2022/10/20 20:01:51;;;;;;;5.72;5.22;;;;;;;9.80;86.94;63011.44;5066028;28;20232;-78
2022/10/20 20:04:18;;;;;;;5.50;4.80;;;;;;;9.71;87.28;63002.16;5053854;28;20240;-77
2022/10/20 20:06:45;;;;;;;5.53;5.03;;;;;;;9.67;87.92;62995.47;5048769;28;20210;-77
2022/10/20 20:09:14;;;;;;;5.50;4.43;;;;;;;9.70;88.17;62996.03;5066561;28;20259;-77
2022/10/20 20:11:41;;;;;;;5.10;4.57;;;;;;;9.75;87.91;63005.78;5066824;28;20197;-78
2022/10/20 20:14:12;;;;;;;4.25;4.00;;;;;;;9.70;88.46;63000.63;5069981;28;20289;-77
2022/10/20 20:16:39;;;;;;;4.80;4.35;;;;;;;9.69;88.75;62995.00;5070868;28;20304;-77
2022/10/20 20:19:06;;;;;;;5.32;4.82;;;;;;;9.52;89.34;62982.50;5068351;28;20292;-77
2022/10/20 20:21:33;;;;;;;6.57;3.72;;;;;;;9.51;89.95;62980.97;5049753;28;20533;-76
2022/10/20 20:24:02;;;;;;;5.45;4.82;;;;;;;9.50;90.51;62975.34;5051905;28;20217;-77
2022/10/20 20:26:31;;;;;;;4.57;4.28;;;;;;;9.46;90.57;62973.75;5053584;28;20197;-78
2022/10/20 20:28:58;;;;;;;4.05;3.78;;;;;;;9.47;90.61;62971.75;5064697;28;20221;-78
2022/10/20 20:31:28;;;;;;;4.65;4.25;;;;;;;9.39;90.97;62969.06;5052935;28;20215;-77
2022/10/20 20:33:56;;;;;;;5.63;4.40;;;;;;;9.41;91.23;62971.13;5069479;28;20296;-77
2022/10/20 20:36:25;;;;;;;7.88;4.60;;;;;;;9.41;91.10;62971.13;5068350;28;20260;-77
2022/10/20 20:38:52;;;;;;;4.82;4.43;;;;;;;9.39;91.34;62966.00;5072656;28;20222;-76
2022/10/20 20:41:19;;;;;;;4.32;3.90;;;;;;;9.32;91.75;62959.81;5070128;28;20233;-77
2022/10/20 20:43:46;;;;;;;5.18;4.45;;;;;;;9.34;91.98;62961.34;5072340;28;20217;-76
2022/10/20 20:46:15;;;;;;;4.30;4.05;;;;;;;9.29;92.27;62956.19;5075432;28;20212;-78
2022/10/20 20:48:44;;;;;;;4.65;4.07;;;;;;;9.22;92.81;62952.00;5073989;28;20217;-78
2022/10/20 20:51:11;;;;;;;4.82;4.35;;;;;;;9.13;93.30;62940.16;5065261;28;20235;-77
2022/10/20 20:53:39;;;;;;;4.50;4.10;;;;;;;9.14;93.26;62943.75;5072631;28;20544;-79
2022/10/20 20:56:08;;;;;;;6.45;4.60;;;;;;;9.11;93.70;62938.09;5064799;28;20244;-77
2022/10/20 20:58:35;;;;;;;6.30;5.20;;;;;;;9.08;94.16;62931.94;5049172;28;20244;-79
2022/10/20 21:01:03;;;;;;;6.10;5.00;;;;;;;9.00;94.47;62926.72;5065778;28;20258;-76
2022/10/20 21:03:30;;;;;;;5.00;4.60;;;;;;;8.96;94.83;62922.59;5067185;28;20232;-77
2022/10/20 21:06:03;;;;;;;5.05;4.50;;;;;;;8.97;94.95;62920.56;5066704;28;20204;-77
2022/10/20 21:08:32;;;;;;;5.28;4.78;;;;;;;8.94;94.97;62923.06;5067462;28;20221;-76
2022/10/20 21:11:04;;;;;;;5.35;4.90;;;;;;;8.91;95.40;62917.44;5046913;28;20201;-77
2022/10/20 21:13:32;;;;;;;4.68;4.28;;;;;;;8.83;96.22;62906.63;5046718;28;20225;-78
2022/10/20 21:16:08;;;;;;;5.53;4.38;;;;;;;8.79;96.44;62907.56;5048914;28;20499;-77
2022/10/20 21:18:35;;;;;;;5.53;4.45;;;;;;;8.79;96.71;62901.97;5050284;28;20287;-77
2022/10/20 21:21:08;;;;;;;4.63;4.25;;;;;;;8.80;96.98;62908.09;5048039;28;20202;-76
2022/10/20 21:23:35;;;;;;;5.63;4.35;;;;;;;8.75;97.44;62897.84;5048763;28;20234;-76
2022/10/20 21:26:02;;;;;;;4.90;4.53;;;;;;;8.63;98.37;62882.91;5045982;28;20561;-75
2022/10/20 21:28:28;;;;;;;6.65;5.30;;;;;;;8.49;98.96;62876.06;5048767;28;20271;-77
2022/10/20 21:30:56;;;;;;;5.90;5.30;;;;;;;8.47;98.66;62877.03;5049214;28;20198;-76
2022/10/20 21:33:23;;;;;;;9.27;5.10;;;;;;;8.43;98.57;62867.81;5046282;28;20451;-75
2022/10/20 21:35:49;;;;;;;4.93;4.57;;;;;;;8.37;98.39;62861.63;5052525;28;20259;-75
2022/10/20 21:38:18;;;;;;;8.23;5.43;;;;;;;8.28;99.54;62849.28;5046616;28;20221;-76
2022/10/20 21:40:45;;;;;;;5.53;5.13;;;;;;;8.21;99.99;62850.16;5047128;28;20249;-77
2022/10/20 21:43:13;;;;;;;7.03;5.43;;;;;;;8.17;100.00;62835.88;5047813;28;20233;-77
2022/10/20 21:45:40;;;;;;;5.80;4.88;;;;;;;8.19;100.00;62843.53;5057289;28;20208;-75
2022/10/20 21:48:06;;;;;;;5.97;5.47;;;;;;;8.16;100.00;62840.44;5046098;28;20288;-75
2022/10/20 21:50:35;;;;;;;6.32;5.72;;;;;;;8.31;100.00;62850.34;5047022;28;20206;-77
2022/10/20 21:53:02;;;;;;;6.05;5.50;;;;;;;8.31;100.00;62854.91;5046097;28;20467;-76
2022/10/20 21:55:30;;;;;;;6.50;5.55;;;;;;;8.22;100.00;62843.56;5064458;28;20201;-76
2022/10/20 21:57:57;;;;;;;5.15;4.75;;;;;;;8.16;100.00;62837.38;5067561;28;20197;-76
2022/10/20 22:00:23;;;;;;;7.10;6.00;;;;;;;8.13;100.00;62834.81;5064604;28;20411;-76
2022/10/20 22:02:50;;;;;;;6.38;5.35;;;;;;;8.06;100.00;62827.03;5051117;28;20255;-77
2022/10/20 22:05:17;;;;;;;6.80;5.30;;;;;;;8.05;100.00;62828.56;5066219;28;20437;-75
2022/10/20 22:07:44;;;;;;;5.63;5.03;;;;;;;7.94;100.00;62817.72;5067429;28;20236;-77
2022/10/20 22:10:11;;;;;;;4.97;4.57;;;;;;;7.98;100.00;62816.78;5059029;28;20285;-75
2022/10/20 22:12:39;;;;;;;6.35;5.75;;;;;;;7.97;100.00;62820.81;5058172;28;20201;-76
2022/10/20 22:15:07;;;;;;;5.30;4.90;;;;;;;7.92;100.00;62815.66;5066181;28;20217;-76
2022/10/20 22:17:33;;;;;;;4.97;4.57;;;;;;;7.99;100.00;62824.88;5065585;28;20235;-76
2022/10/20 22:20:00;;;;;;;5.90;4.95;;;;;;;7.90;100.00;62810.53;5051456;28;20218;-76
2022/10/20 22:22:29;;;;;;;5.00;4.60;;;;;;;7.84;100.00;62804.84;5065567;28;20229;-77
2022/10/20 22:24:56;;;;;;;4.78;4.38;;;;;;;7.76;100.00;62798.63;5065763;28;20440;-77
2022/10/20 22:27:23;;;;;;;5.43;4.93;;;;;;;7.73;100.00;62796.03;5066202;28;20243;-78
2022/10/20 22:29:51;;;;;;;5.35;4.88;;;;;;;7.74;100.00;62797.06;5047108;28;20284;-77
2022/10/20 22:32:18;;;;;;;5.72;5.22;;;;;;;7.79;100.00;62804.75;5065605;28;20516;-76
2022/10/20 22:34:44;;;;;;;5.60;5.13;;;;;;;7.80;100.00;62802.75;5067813;28;20209;-76
2022/10/20 22:37:11;;;;;;;5.85;5.35;;;;;;;7.78;100.00;62798.16;5067738;28;20540;-77
2022/10/20 22:39:38;;;;;;;5.65;5.05;;;;;;;7.85;100.00;62803.34;5061674;28;20441;-75
2022/10/20 22:42:05;;;;;;;6.20;5.55;;;;;;;7.78;100.00;62798.66;5066744;28;20255;-76
2022/10/20 22:44:32;;;;;;;4.97;4.60;;;;;;;7.79;100.00;62804.75;5065719;28;20459;-77
2022/10/20 22:47:00;;;;;;;5.90;5.40;;;;;;;7.78;100.00;62800.69;5051535;28;20208;-75
2022/10/20 22:49:27;;;;;;;4.90;4.43;;;;;;;7.85;100.00;62808.41;5061063;28;20221;-75
2022/10/20 22:51:53;;;;;;;4.53;4.13;;;;;;;7.80;100.00;62808.31;5065056;28;20432;-77
2022/10/20 22:54:20;;;;;;;5.57;5.18;;;;;;;7.76;100.00;62791.53;5064149;28;20252;-77
2022/10/20 22:56:51;;;;;;;4.50;4.15;;;;;;;7.74;100.00;62799.59;5045062;28;20202;-76
2022/10/20 22:59:18;;;;;;;5.03;4.65;;;;;;;7.72;100.00;62795.00;5064641;28;20263;-76
2022/10/20 23:01:45;;;;;;;5.15;4.75;;;;;;;7.72;100.00;62797.53;5064968;28;20205;-75
2022/10/20 23:04:14;;;;;;;5.40;4.90;;;;;;;7.72;100.00;62797.53;5062167;28;20225;-76
2022/10/20 23:06:41;;;;;;;5.45;4.95;;;;;;;7.78;100.00;62808.78;5051579;28;20204;-76
2022/10/20 23:09:08;;;;;;;6.05;5.45;;;;;;;7.74;100.00;62794.00;5064088;28;20447;-76
2022/10/20 23:11:35;;;;;;;5.75;5.28;;;;;;;7.67;100.00;62787.31;5065104;28;20383;-75
